sensor_id;sensor_type;location;lat;lon;timestamp;P1;durP1;ratioP1;P2;durP2;ratioP2
76336;SDS011;65157;50.082;18.178;2023-08-24T00:01:30;7.20;;;5.20;;
76336;SDS011;65157;50.082;18.178;2023-08-24T00:03:57;6.90;;;4.30;;
76336;SDS011;65157;50.082;18.178;2023-08-24T00:06:24;5.80;;;4.40;;
76336;SDS011;65157;50.082;18.178;2023-08-24T00:08:50;9.30;;;5.00;;
76336;SDS011;65157;50.082;18.178;2023-08-24T00:11:17;7.10;;;5.10;;
76336;SDS011;65157;50.082;18.178;2023-08-24T00:16:12;6.70;;;4.60;;
76336;SDS011;65157;50.082;18.178;2023-08-24T00:18:39;7.10;;;6.10;;
76336;SDS011;65157;50.082;18.178;2023-08-24T00:21:06;6.40;;;4.90;;
76336;SDS011;65157;50.082;18.178;2023-08-24T00:25:59;6.10;;;5.50;;
76336;SDS011;65157;50.082;18.178;2023-08-24T00:28:25;5.50;;;4.60;;
76336;SDS011;65157;50.082;18.178;2023-08-24T00:30:52;4.60;;;4.20;;
76336;SDS011;65157;50.082;18.178;2023-08-24T00:33:19;5.60;;;5.00;;
76336;SDS011;65157;50.082;18.178;2023-08-24T00:35:45;7.00;;;5.70;;
76336;SDS011;65157;50.082;18.178;2023-08-24T00:38:12;6.60;;;4.50;;
76336;SDS011;65157;50.082;18.178;2023-08-24T00:40:41;7.00;;;4.60;;
76336;SDS011;65157;50.082;18.178;2023-08-24T00:43:08;6.80;;;4.90;;
76336;SDS011;65157;50.082;18.178;2023-08-24T00:45:34;6.30;;;4.80;;
76336;SDS011;65157;50.082;18.178;2023-08-24T00:48:02;6.50;;;4.10;;
76336;SDS011;65157;50.082;18.178;2023-08-24T00:50:29;5.40;;;4.90;;
76336;SDS011;65157;50.082;18.178;2023-08-24T00:52:56;5.40;;;4.80;;
76336;SDS011;65157;50.082;18.178;2023-08-24T00:57:49;6.20;;;5.40;;
76336;SDS011;65157;50.082;18.178;2023-08-24T01:00:16;4.70;;;4.30;;
76336;SDS011;65157;50.082;18.178;2023-08-24T01:02:43;6.60;;;5.50;;
76336;SDS011;65157;50.082;18.178;2023-08-24T01:07:38;5.50;;;4.90;;
76336;SDS011;65157;50.082;18.178;2023-08-24T01:10:06;7.00;;;4.60;;
76336;SDS011;65157;50.082;18.178;2023-08-24T01:12:50;7.30;;;5.90;;
76336;SDS011;65157;50.082;18.178;2023-08-24T01:17:57;7.50;;;5.90;;
76336;SDS011;65157;50.082;18.178;2023-08-24T01:20:30;8.70;;;5.60;;
76336;SDS011;65157;50.082;18.178;2023-08-24T01:23:04;6.00;;;5.10;;
76336;SDS011;65157;50.082;18.178;2023-08-24T01:25:42;5.90;;;5.10;;
76336;SDS011;65157;50.082;18.178;2023-08-24T01:28:17;5.70;;;5.00;;
76336;SDS011;65157;50.082;18.178;2023-08-24T01:30:46;7.40;;;5.70;;
76336;SDS011;65157;50.082;18.178;2023-08-24T01:33:13;6.70;;;4.80;;
76336;SDS011;65157;50.082;18.178;2023-08-24T01:35:40;6.30;;;5.60;;
76336;SDS011;65157;50.082;18.178;2023-08-24T01:38:07;6.10;;;5.30;;
76336;SDS011;65157;50.082;18.178;2023-08-24T01:43:18;6.50;;;5.00;;
76336;SDS011;65157;50.082;18.178;2023-08-24T01:45:48;7.40;;;5.00;;
76336;SDS011;65157;50.082;18.178;2023-08-24T01:48:16;6.30;;;4.90;;
76336;SDS011;65157;50.082;18.178;2023-08-24T01:50:43;7.30;;;5.10;;
76336;SDS011;65157;50.082;18.178;2023-08-24T01:53:11;5.20;;;4.70;;
76336;SDS011;65157;50.082;18.178;2023-08-24T01:55:38;5.30;;;4.80;;
76336;SDS011;65157;50.082;18.178;2023-08-24T01:58:05;6.60;;;4.80;;
76336;SDS011;65157;50.082;18.178;2023-08-24T02:00:31;6.40;;;4.80;;
76336;SDS011;65157;50.082;18.178;2023-08-24T02:02:58;5.70;;;5.00;;
76336;SDS011;65157;50.082;18.178;2023-08-24T02:07:52;7.80;;;4.70;;
76336;SDS011;65157;50.082;18.178;2023-08-24T02:10:18;8.50;;;4.60;;
76336;SDS011;65157;50.082;18.178;2023-08-24T02:15:11;6.00;;;5.00;;
76336;SDS011;65157;50.082;18.178;2023-08-24T02:20:06;8.20;;;5.30;;
76336;SDS011;65157;50.082;18.178;2023-08-24T02:22:34;8.20;;;6.70;;
76336;SDS011;65157;50.082;18.178;2023-08-24T02:25:02;6.70;;;4.90;;
76336;SDS011;65157;50.082;18.178;2023-08-24T02:27:29;7.20;;;5.20;;
76336;SDS011;65157;50.082;18.178;2023-08-24T02:29:55;5.40;;;4.60;;
76336;SDS011;65157;50.082;18.178;2023-08-24T02:32:23;5.20;;;4.70;;
76336;SDS011;65157;50.082;18.178;2023-08-24T02:34:51;7.90;;;5.10;;
76336;SDS011;65157;50.082;18.178;2023-08-24T02:37:18;6.70;;;5.60;;
76336;SDS011;65157;50.082;18.178;2023-08-24T02:39:45;7.00;;;5.20;;
76336;SDS011;65157;50.082;18.178;2023-08-24T02:42:12;6.20;;;4.80;;
76336;SDS011;65157;50.082;18.178;2023-08-24T02:44:38;6.00;;;4.30;;
76336;SDS011;65157;50.082;18.178;2023-08-24T02:47:05;5.20;;;4.70;;
76336;SDS011;65157;50.082;18.178;2023-08-24T02:51:58;6.50;;;4.90;;
76336;SDS011;65157;50.082;18.178;2023-08-24T02:54:25;4.70;;;4.10;;
76336;SDS011;65157;50.082;18.178;2023-08-24T02:56:51;8.00;;;5.40;;
76336;SDS011;65157;50.082;18.178;2023-08-24T02:59:20;7.30;;;4.50;;
76336;SDS011;65157;50.082;18.178;2023-08-24T03:01:46;5.00;;;4.30;;
76336;SDS011;65157;50.082;18.178;2023-08-24T03:04:13;5.10;;;4.00;;
76336;SDS011;65157;50.082;18.178;2023-08-24T03:06:39;6.10;;;5.40;;
76336;SDS011;65157;50.082;18.178;2023-08-24T03:09:06;6.50;;;4.50;;
76336;SDS011;65157;50.082;18.178;2023-08-24T03:11:33;5.90;;;4.80;;
76336;SDS011;65157;50.082;18.178;2023-08-24T03:13:59;4.90;;;4.50;;
76336;SDS011;65157;50.082;18.178;2023-08-24T03:16:26;5.80;;;4.00;;
76336;SDS011;65157;50.082;18.178;2023-08-24T03:21:19;5.50;;;4.30;;
76336;SDS011;65157;50.082;18.178;2023-08-24T03:23:46;5.70;;;5.10;;
76336;SDS011;65157;50.082;18.178;2023-08-24T03:26:13;5.30;;;4.80;;
76336;SDS011;65157;50.082;18.178;2023-08-24T03:28:40;7.00;;;4.50;;
76336;SDS011;65157;50.082;18.178;2023-08-24T03:31:07;5.10;;;4.50;;
76336;SDS011;65157;50.082;18.178;2023-08-24T03:33:34;6.30;;;5.20;;
76336;SDS011;65157;50.082;18.178;2023-08-24T03:36:01;5.90;;;4.70;;
76336;SDS011;65157;50.082;18.178;2023-08-24T03:38:29;7.30;;;5.70;;
76336;SDS011;65157;50.082;18.178;2023-08-24T03:41:02;5.20;;;4.40;;
76336;SDS011;65157;50.082;18.178;2023-08-24T03:43:33;6.40;;;5.20;;
76336;SDS011;65157;50.082;18.178;2023-08-24T03:46:01;5.50;;;4.50;;
76336;SDS011;65157;50.082;18.178;2023-08-24T03:48:28;10.80;;;5.80;;
76336;SDS011;65157;50.082;18.178;2023-08-24T03:50:55;8.00;;;6.00;;
76336;SDS011;65157;50.082;18.178;2023-08-24T03:53:22;5.50;;;4.90;;
76336;SDS011;65157;50.082;18.178;2023-08-24T03:55:50;5.60;;;5.10;;
76336;SDS011;65157;50.082;18.178;2023-08-24T03:58:18;6.20;;;4.60;;
76336;SDS011;65157;50.082;18.178;2023-08-24T04:00:45;6.80;;;5.40;;
76336;SDS011;65157;50.082;18.178;2023-08-24T04:03:12;6.00;;;4.90;;
76336;SDS011;65157;50.082;18.178;2023-08-24T04:05:39;6.20;;;5.10;;
76336;SDS011;65157;50.082;18.178;2023-08-24T04:08:07;8.30;;;5.10;;
76336;SDS011;65157;50.082;18.178;2023-08-24T04:10:34;6.90;;;4.40;;
76336;SDS011;65157;50.082;18.178;2023-08-24T04:13:01;7.10;;;5.00;;
76336;SDS011;65157;50.082;18.178;2023-08-24T04:15:28;6.00;;;5.40;;
76336;SDS011;65157;50.082;18.178;2023-08-24T04:17:55;8.10;;;6.40;;
76336;SDS011;65157;50.082;18.178;2023-08-24T04:20:22;11.10;;;6.30;;
76336;SDS011;65157;50.082;18.178;2023-08-24T04:22:49;5.70;;;4.70;;
76336;SDS011;65157;50.082;18.178;2023-08-24T04:25:16;6.50;;;5.70;;
76336;SDS011;65157;50.082;18.178;2023-08-24T04:27:43;7.00;;;5.30;;
76336;SDS011;65157;50.082;18.178;2023-08-24T04:30:11;6.40;;;5.60;;
76336;SDS011;65157;50.082;18.178;2023-08-24T04:32:38;7.00;;;5.00;;
76336;SDS011;65157;50.082;18.178;2023-08-24T04:35:05;7.50;;;6.30;;
76336;SDS011;65157;50.082;18.178;2023-08-24T04:37:32;6.20;;;5.30;;
76336;SDS011;65157;50.082;18.178;2023-08-24T04:39:59;6.30;;;5.70;;
76336;SDS011;65157;50.082;18.178;2023-08-24T04:42:27;5.60;;;5.00;;
76336;SDS011;65157;50.082;18.178;2023-08-24T04:44:54;7.50;;;6.70;;
76336;SDS011;65157;50.082;18.178;2023-08-24T04:47:21;8.40;;;6.00;;
76336;SDS011;65157;50.082;18.178;2023-08-24T04:49:47;7.30;;;6.70;;
76336;SDS011;65157;50.082;18.178;2023-08-24T04:52:14;9.90;;;5.90;;
76336;SDS011;65157;50.082;18.178;2023-08-24T04:54:41;6.90;;;6.40;;
76336;SDS011;65157;50.082;18.178;2023-08-24T04:57:08;6.80;;;5.90;;
76336;SDS011;65157;50.082;18.178;2023-08-24T04:59:34;6.50;;;5.80;;
76336;SDS011;65157;50.082;18.178;2023-08-24T05:02:02;6.60;;;5.30;;
76336;SDS011;65157;50.082;18.178;2023-08-24T05:04:29;6.90;;;6.10;;
76336;SDS011;65157;50.082;18.178;2023-08-24T05:06:55;7.50;;;5.80;;
76336;SDS011;65157;50.082;18.178;2023-08-24T05:09:22;7.50;;;6.70;;
76336;SDS011;65157;50.082;18.178;2023-08-24T05:11:49;8.80;;;7.20;;
76336;SDS011;65157;50.082;18.178;2023-08-24T05:14:16;8.00;;;7.20;;
76336;SDS011;65157;50.082;18.178;2023-08-24T05:16:42;8.50;;;6.60;;
76336;SDS011;65157;50.082;18.178;2023-08-24T05:19:09;8.90;;;6.60;;
76336;SDS011;65157;50.082;18.178;2023-08-24T05:21:36;9.00;;;5.80;;
76336;SDS011;65157;50.082;18.178;2023-08-24T05:24:02;10.20;;;6.00;;
76336;SDS011;65157;50.082;18.178;2023-08-24T05:26:30;7.90;;;7.00;;
76336;SDS011;65157;50.082;18.178;2023-08-24T05:28:57;6.30;;;5.20;;
76336;SDS011;65157;50.082;18.178;2023-08-24T05:31:23;5.80;;;5.30;;
76336;SDS011;65157;50.082;18.178;2023-08-24T05:33:50;8.30;;;6.20;;
76336;SDS011;65157;50.082;18.178;2023-08-24T05:36:18;6.10;;;5.50;;
76336;SDS011;65157;50.082;18.178;2023-08-24T05:38:44;5.90;;;5.20;;
76336;SDS011;65157;50.082;18.178;2023-08-24T05:41:11;6.10;;;5.50;;
76336;SDS011;65157;50.082;18.178;2023-08-24T05:43:38;8.50;;;6.20;;
76336;SDS011;65157;50.082;18.178;2023-08-24T05:46:05;6.70;;;5.70;;
76336;SDS011;65157;50.082;18.178;2023-08-24T05:48:32;7.50;;;5.60;;
76336;SDS011;65157;50.082;18.178;2023-08-24T05:50:58;7.40;;;6.70;;
76336;SDS011;65157;50.082;18.178;2023-08-24T05:53:25;9.30;;;6.20;;
76336;SDS011;65157;50.082;18.178;2023-08-24T05:55:51;6.30;;;5.00;;
76336;SDS011;65157;50.082;18.178;2023-08-24T05:58:23;8.30;;;5.70;;
76336;SDS011;65157;50.082;18.178;2023-08-24T06:00:55;6.60;;;6.00;;
76336;SDS011;65157;50.082;18.178;2023-08-24T06:03:23;7.80;;;5.70;;
76336;SDS011;65157;50.082;18.178;2023-08-24T06:05:51;6.90;;;5.30;;
76336;SDS011;65157;50.082;18.178;2023-08-24T06:08:18;9.20;;;6.80;;
76336;SDS011;65157;50.082;18.178;2023-08-24T06:10:44;7.20;;;6.00;;
76336;SDS011;65157;50.082;18.178;2023-08-24T06:13:11;7.00;;;6.00;;
76336;SDS011;65157;50.082;18.178;2023-08-24T06:15:38;7.50;;;6.70;;
76336;SDS011;65157;50.082;18.178;2023-08-24T06:18:06;6.90;;;6.10;;
76336;SDS011;65157;50.082;18.178;2023-08-24T06:22:59;5.70;;;5.10;;
76336;SDS011;65157;50.082;18.178;2023-08-24T06:25:26;7.10;;;6.20;;
76336;SDS011;65157;50.082;18.178;2023-08-24T06:30:19;7.20;;;4.20;;
76336;SDS011;65157;50.082;18.178;2023-08-24T06:35:12;6.50;;;4.10;;
76336;SDS011;65157;50.082;18.178;2023-08-24T06:40:05;6.60;;;4.50;;
76336;SDS011;65157;50.082;18.178;2023-08-24T06:42:34;5.50;;;4.90;;
76336;SDS011;65157;50.082;18.178;2023-08-24T06:47:27;6.30;;;3.90;;
76336;SDS011;65157;50.082;18.178;2023-08-24T06:49:54;5.70;;;4.40;;
76336;SDS011;65157;50.082;18.178;2023-08-24T06:54:47;5.50;;;4.40;;
76336;SDS011;65157;50.082;18.178;2023-08-24T06:59:40;4.60;;;4.10;;
76336;SDS011;65157;50.082;18.178;2023-08-24T07:04:33;6.60;;;5.90;;
76336;SDS011;65157;50.082;18.178;2023-08-24T07:07:01;5.30;;;4.80;;
76336;SDS011;65157;50.082;18.178;2023-08-24T07:09:27;6.90;;;5.20;;
76336;SDS011;65157;50.082;18.178;2023-08-24T07:11:54;6.10;;;5.30;;
76336;SDS011;65157;50.082;18.178;2023-08-24T07:14:21;7.00;;;5.20;;
76336;SDS011;65157;50.082;18.178;2023-08-24T07:16:47;4.70;;;4.30;;
76336;SDS011;65157;50.082;18.178;2023-08-24T07:19:14;6.50;;;4.40;;
76336;SDS011;65157;50.082;18.178;2023-08-24T07:21:41;4.70;;;3.80;;
76336;SDS011;65157;50.082;18.178;2023-08-24T07:24:07;4.60;;;4.00;;
76336;SDS011;65157;50.082;18.178;2023-08-24T07:26:34;5.10;;;3.70;;
76336;SDS011;65157;50.082;18.178;2023-08-24T07:29:01;6.80;;;3.70;;
76336;SDS011;65157;50.082;18.178;2023-08-24T07:31:29;10.30;;;5.10;;
76336;SDS011;65157;50.082;18.178;2023-08-24T07:33:56;6.50;;;4.20;;
76336;SDS011;65157;50.082;18.178;2023-08-24T07:36:23;6.50;;;5.70;;
76336;SDS011;65157;50.082;18.178;2023-08-24T07:38:50;5.00;;;4.60;;
76336;SDS011;65157;50.082;18.178;2023-08-24T07:41:17;4.40;;;3.00;;
76336;SDS011;65157;50.082;18.178;2023-08-24T07:43:43;4.70;;;3.60;;
76336;SDS011;65157;50.082;18.178;2023-08-24T07:46:10;6.10;;;4.90;;
76336;SDS011;65157;50.082;18.178;2023-08-24T07:48:37;9.10;;;6.00;;
76336;SDS011;65157;50.082;18.178;2023-08-24T07:51:03;7.60;;;6.70;;
76336;SDS011;65157;50.082;18.178;2023-08-24T07:53:30;7.90;;;5.60;;
76336;SDS011;65157;50.082;18.178;2023-08-24T07:55:57;5.00;;;4.60;;
76336;SDS011;65157;50.082;18.178;2023-08-24T07:58:24;5.60;;;5.20;;
76336;SDS011;65157;50.082;18.178;2023-08-24T08:00:51;4.40;;;3.60;;
76336;SDS011;65157;50.082;18.178;2023-08-24T08:03:18;4.50;;;2.70;;
76336;SDS011;65157;50.082;18.178;2023-08-24T08:05:46;2.80;;;2.60;;
76336;SDS011;65157;50.082;18.178;2023-08-24T08:08:13;3.80;;;3.20;;
76336;SDS011;65157;50.082;18.178;2023-08-24T08:10:41;4.00;;;2.70;;
76336;SDS011;65157;50.082;18.178;2023-08-24T08:13:09;3.30;;;2.70;;
76336;SDS011;65157;50.082;18.178;2023-08-24T08:15:36;4.50;;;3.30;;
76336;SDS011;65157;50.082;18.178;2023-08-24T08:18:02;3.80;;;3.30;;
76336;SDS011;65157;50.082;18.178;2023-08-24T08:20:29;4.30;;;2.60;;
76336;SDS011;65157;50.082;18.178;2023-08-24T08:22:56;3.30;;;2.90;;
76336;SDS011;65157;50.082;18.178;2023-08-24T08:25:23;3.80;;;3.50;;
76336;SDS011;65157;50.082;18.178;2023-08-24T08:27:50;5.50;;;3.40;;
76336;SDS011;65157;50.082;18.178;2023-08-24T08:30:17;3.60;;;3.30;;
76336;SDS011;65157;50.082;18.178;2023-08-24T08:32:44;4.90;;;3.30;;
76336;SDS011;65157;50.082;18.178;2023-08-24T08:35:11;3.40;;;3.10;;
76336;SDS011;65157;50.082;18.178;2023-08-24T08:37:38;4.80;;;3.20;;
76336;SDS011;65157;50.082;18.178;2023-08-24T08:40:05;3.30;;;3.00;;
76336;SDS011;65157;50.082;18.178;2023-08-24T08:42:35;2.50;;;2.40;;
76336;SDS011;65157;50.082;18.178;2023-08-24T08:45:04;4.30;;;3.50;;
76336;SDS011;65157;50.082;18.178;2023-08-24T08:47:35;4.20;;;3.40;;
76336;SDS011;65157;50.082;18.178;2023-08-24T08:50:04;5.20;;;4.20;;
76336;SDS011;65157;50.082;18.178;2023-08-24T08:52:31;6.60;;;4.70;;
76336;SDS011;65157;50.082;18.178;2023-08-24T08:55:00;3.60;;;3.00;;
76336;SDS011;65157;50.082;18.178;2023-08-24T08:57:27;4.40;;;4.00;;
76336;SDS011;65157;50.082;18.178;2023-08-24T08:59:54;4.30;;;3.80;;
76336;SDS011;65157;50.082;18.178;2023-08-24T09:02:22;4.30;;;3.90;;
76336;SDS011;65157;50.082;18.178;2023-08-24T09:04:50;2.90;;;2.30;;
76336;SDS011;65157;50.082;18.178;2023-08-24T09:07:18;3.80;;;3.30;;
76336;SDS011;65157;50.082;18.178;2023-08-24T09:09:44;3.30;;;3.00;;
76336;SDS011;65157;50.082;18.178;2023-08-24T09:12:11;4.80;;;4.40;;
76336;SDS011;65157;50.082;18.178;2023-08-24T09:14:37;3.20;;;2.40;;
76336;SDS011;65157;50.082;18.178;2023-08-24T09:17:04;4.20;;;3.70;;
76336;SDS011;65157;50.082;18.178;2023-08-24T09:19:32;4.10;;;2.50;;
76336;SDS011;65157;50.082;18.178;2023-08-24T09:22:00;3.40;;;2.20;;
76336;SDS011;65157;50.082;18.178;2023-08-24T09:24:31;4.10;;;3.60;;
76336;SDS011;65157;50.082;18.178;2023-08-24T09:27:00;4.30;;;3.10;;
76336;SDS011;65157;50.082;18.178;2023-08-24T09:29:40;3.60;;;2.60;;
76336;SDS011;65157;50.082;18.178;2023-08-24T09:32:07;6.00;;;3.30;;
76336;SDS011;65157;50.082;18.178;2023-08-24T09:34:35;4.10;;;2.70;;
76336;SDS011;65157;50.082;18.178;2023-08-24T09:37:03;6.50;;;4.60;;
76336;SDS011;65157;50.082;18.178;2023-08-24T09:39:30;3.30;;;2.80;;
76336;SDS011;65157;50.082;18.178;2023-08-24T09:41:59;3.60;;;3.20;;
76336;SDS011;65157;50.082;18.178;2023-08-24T09:44:28;5.30;;;4.80;;
76336;SDS011;65157;50.082;18.178;2023-08-24T09:46:56;4.20;;;3.40;;
76336;SDS011;65157;50.082;18.178;2023-08-24T09:49:23;4.50;;;4.20;;
76336;SDS011;65157;50.082;18.178;2023-08-24T09:51:51;3.80;;;3.40;;
76336;SDS011;65157;50.082;18.178;2023-08-24T09:54:22;7.10;;;3.30;;
76336;SDS011;65157;50.082;18.178;2023-08-24T09:56:54;3.40;;;2.80;;
76336;SDS011;65157;50.082;18.178;2023-08-24T09:59:22;4.10;;;3.80;;
76336;SDS011;65157;50.082;18.178;2023-08-24T10:01:49;3.40;;;2.90;;
76336;SDS011;65157;50.082;18.178;2023-08-24T10:04:24;3.30;;;3.00;;
76336;SDS011;65157;50.082;18.178;2023-08-24T10:06:52;4.00;;;3.50;;
76336;SDS011;65157;50.082;18.178;2023-08-24T10:09:25;3.30;;;3.10;;
76336;SDS011;65157;50.082;18.178;2023-08-24T10:11:59;3.70;;;3.50;;
76336;SDS011;65157;50.082;18.178;2023-08-24T10:14:30;2.80;;;2.30;;
76336;SDS011;65157;50.082;18.178;2023-08-24T10:17:00;3.60;;;3.30;;
76336;SDS011;65157;50.082;18.178;2023-08-24T10:19:27;2.80;;;2.10;;
76336;SDS011;65157;50.082;18.178;2023-08-24T10:21:54;3.80;;;3.50;;
76336;SDS011;65157;50.082;18.178;2023-08-24T10:24:22;3.90;;;3.60;;
76336;SDS011;65157;50.082;18.178;2023-08-24T10:26:49;3.70;;;3.40;;
76336;SDS011;65157;50.082;18.178;2023-08-24T10:29:19;2.40;;;2.20;;
76336;SDS011;65157;50.082;18.178;2023-08-24T10:31:48;2.70;;;2.30;;
76336;SDS011;65157;50.082;18.178;2023-08-24T10:34:15;4.00;;;3.80;;
76336;SDS011;65157;50.082;18.178;2023-08-24T10:36:42;4.40;;;4.10;;
76336;SDS011;65157;50.082;18.178;2023-08-24T10:39:09;4.30;;;3.90;;
76336;SDS011;65157;50.082;18.178;2023-08-24T10:44:24;4.30;;;2.60;;
76336;SDS011;65157;50.082;18.178;2023-08-24T10:55:03;5.20;;;3.10;;
76336;SDS011;65157;50.082;18.178;2023-08-24T10:57:55;3.00;;;2.70;;
76336;SDS011;65157;50.082;18.178;2023-08-24T11:00:30;3.70;;;3.10;;
76336;SDS011;65157;50.082;18.178;2023-08-24T11:02:57;3.10;;;2.10;;
76336;SDS011;65157;50.082;18.178;2023-08-24T11:05:26;4.60;;;3.40;;
76336;SDS011;65157;50.082;18.178;2023-08-24T11:10:21;2.70;;;2.50;;
76336;SDS011;65157;50.082;18.178;2023-08-24T11:20:44;3.80;;;2.20;;
76336;SDS011;65157;50.082;18.178;2023-08-24T11:23:13;4.60;;;4.10;;
76336;SDS011;65157;50.082;18.178;2023-08-24T11:25:41;4.60;;;3.20;;
76336;SDS011;65157;50.082;18.178;2023-08-24T11:28:08;4.80;;;4.50;;
76336;SDS011;65157;50.082;18.178;2023-08-24T11:30:36;5.40;;;4.80;;
76336;SDS011;65157;50.082;18.178;2023-08-24T11:33:03;4.80;;;2.70;;
76336;SDS011;65157;50.082;18.178;2023-08-24T11:35:34;3.10;;;2.90;;
76336;SDS011;65157;50.082;18.178;2023-08-24T11:38:01;2.50;;;2.30;;
76336;SDS011;65157;50.082;18.178;2023-08-24T11:40:28;3.50;;;3.30;;
76336;SDS011;65157;50.082;18.178;2023-08-24T11:42:55;3.80;;;3.60;;
76336;SDS011;65157;50.082;18.178;2023-08-24T11:45:22;3.50;;;3.20;;
76336;SDS011;65157;50.082;18.178;2023-08-24T11:47:50;3.30;;;3.00;;
76336;SDS011;65157;50.082;18.178;2023-08-24T11:50:17;3.50;;;2.90;;
76336;SDS011;65157;50.082;18.178;2023-08-24T11:52:44;3.00;;;2.40;;
76336;SDS011;65157;50.082;18.178;2023-08-24T11:55:11;5.40;;;3.00;;
76336;SDS011;65157;50.082;18.178;2023-08-24T11:57:37;5.00;;;3.00;;
76336;SDS011;65157;50.082;18.178;2023-08-24T12:00:05;4.90;;;3.20;;
76336;SDS011;65157;50.082;18.178;2023-08-24T12:02:32;3.20;;;2.50;;
76336;SDS011;65157;50.082;18.178;2023-08-24T12:05:00;3.20;;;2.90;;
76336;SDS011;65157;50.082;18.178;2023-08-24T12:07:31;4.80;;;2.60;;
76336;SDS011;65157;50.082;18.178;2023-08-24T12:10:01;4.20;;;2.90;;
76336;SDS011;65157;50.082;18.178;2023-08-24T12:12:29;5.20;;;3.60;;
76336;SDS011;65157;50.082;18.178;2023-08-24T12:14:58;5.40;;;5.00;;
76336;SDS011;65157;50.082;18.178;2023-08-24T12:17:24;4.10;;;2.40;;
76336;SDS011;65157;50.082;18.178;2023-08-24T12:19:59;4.00;;;3.70;;
76336;SDS011;65157;50.082;18.178;2023-08-24T12:22:26;3.10;;;2.90;;
76336;SDS011;65157;50.082;18.178;2023-08-24T12:24:53;4.20;;;3.60;;
76336;SDS011;65157;50.082;18.178;2023-08-24T12:27:20;3.00;;;2.80;;
76336;SDS011;65157;50.082;18.178;2023-08-24T12:29:49;5.50;;;3.70;;
76336;SDS011;65157;50.082;18.178;2023-08-24T12:32:16;3.80;;;3.30;;
76336;SDS011;65157;50.082;18.178;2023-08-24T12:34:43;2.90;;;2.40;;
76336;SDS011;65157;50.082;18.178;2023-08-24T12:37:10;5.20;;;2.40;;
76336;SDS011;65157;50.082;18.178;2023-08-24T12:39:37;3.60;;;3.10;;
76336;SDS011;65157;50.082;18.178;2023-08-24T12:42:03;5.50;;;3.70;;
76336;SDS011;65157;50.082;18.178;2023-08-24T12:44:30;3.50;;;2.90;;
76336;SDS011;65157;50.082;18.178;2023-08-24T12:46:57;4.90;;;3.00;;
76336;SDS011;65157;50.082;18.178;2023-08-24T12:49:23;3.80;;;3.50;;
76336;SDS011;65157;50.082;18.178;2023-08-24T12:51:50;4.20;;;3.80;;
76336;SDS011;65157;50.082;18.178;2023-08-24T12:54:17;3.20;;;2.90;;
76336;SDS011;65157;50.082;18.178;2023-08-24T12:56:44;3.70;;;3.40;;
76336;SDS011;65157;50.082;18.178;2023-08-24T12:59:10;5.20;;;3.40;;
76336;SDS011;65157;50.082;18.178;2023-08-24T13:01:37;4.30;;;3.50;;
76336;SDS011;65157;50.082;18.178;2023-08-24T13:04:04;6.40;;;3.50;;
76336;SDS011;65157;50.082;18.178;2023-08-24T13:06:32;3.10;;;2.80;;
76336;SDS011;65157;50.082;18.178;2023-08-24T13:08:59;4.70;;;4.20;;
76336;SDS011;65157;50.082;18.178;2023-08-24T13:11:26;4.40;;;4.00;;
76336;SDS011;65157;50.082;18.178;2023-08-24T13:13:53;3.70;;;2.40;;
76336;SDS011;65157;50.082;18.178;2023-08-24T13:16:20;3.40;;;3.10;;
76336;SDS011;65157;50.082;18.178;2023-08-24T13:18:46;3.50;;;3.20;;
76336;SDS011;65157;50.082;18.178;2023-08-24T13:21:14;4.20;;;2.50;;
76336;SDS011;65157;50.082;18.178;2023-08-24T13:23:41;3.60;;;2.70;;
76336;SDS011;65157;50.082;18.178;2023-08-24T13:26:19;3.70;;;3.40;;
76336;SDS011;65157;50.082;18.178;2023-08-24T13:28:47;5.90;;;2.30;;
76336;SDS011;65157;50.082;18.178;2023-08-24T13:31:15;3.80;;;3.30;;
76336;SDS011;65157;50.082;18.178;2023-08-24T13:33:42;3.80;;;3.50;;
76336;SDS011;65157;50.082;18.178;2023-08-24T13:36:09;4.50;;;4.10;;
76336;SDS011;65157;50.082;18.178;2023-08-24T13:38:35;3.90;;;3.60;;
76336;SDS011;65157;50.082;18.178;2023-08-24T13:41:02;3.00;;;2.50;;
76336;SDS011;65157;50.082;18.178;2023-08-24T13:43:29;4.20;;;3.90;;
76336;SDS011;65157;50.082;18.178;2023-08-24T13:45:56;4.40;;;4.00;;
76336;SDS011;65157;50.082;18.178;2023-08-24T13:48:22;3.70;;;3.50;;
76336;SDS011;65157;50.082;18.178;2023-08-24T13:50:52;3.60;;;3.40;;
76336;SDS011;65157;50.082;18.178;2023-08-24T13:53:19;5.80;;;4.10;;
76336;SDS011;65157;50.082;18.178;2023-08-24T13:55:46;4.00;;;3.60;;
76336;SDS011;65157;50.082;18.178;2023-08-24T13:58:13;4.20;;;3.50;;
76336;SDS011;65157;50.082;18.178;2023-08-24T14:00:39;6.00;;;3.80;;
76336;SDS011;65157;50.082;18.178;2023-08-24T14:03:06;3.40;;;3.00;;
76336;SDS011;65157;50.082;18.178;2023-08-24T14:05:33;6.70;;;5.60;;
76336;SDS011;65157;50.082;18.178;2023-08-24T14:08:04;4.70;;;4.40;;
76336;SDS011;65157;50.082;18.178;2023-08-24T14:10:31;4.30;;;3.60;;
76336;SDS011;65157;50.082;18.178;2023-08-24T14:12:57;5.20;;;3.60;;
76336;SDS011;65157;50.082;18.178;2023-08-24T14:15:24;4.40;;;4.20;;
76336;SDS011;65157;50.082;18.178;2023-08-24T14:17:51;3.30;;;3.10;;
76336;SDS011;65157;50.082;18.178;2023-08-24T14:20:17;4.60;;;4.40;;
76336;SDS011;65157;50.082;18.178;2023-08-24T14:22:44;5.50;;;5.00;;
76336;SDS011;65157;50.082;18.178;2023-08-24T14:25:10;3.90;;;3.60;;
76336;SDS011;65157;50.082;18.178;2023-08-24T14:27:38;3.80;;;3.40;;
76336;SDS011;65157;50.082;18.178;2023-08-24T14:30:05;4.40;;;3.90;;
76336;SDS011;65157;50.082;18.178;2023-08-24T14:32:32;4.10;;;3.80;;
76336;SDS011;65157;50.082;18.178;2023-08-24T14:34:58;5.20;;;4.80;;
76336;SDS011;65157;50.082;18.178;2023-08-24T14:37:26;11.50;;;4.60;;
76336;SDS011;65157;50.082;18.178;2023-08-24T14:39:55;5.70;;;4.60;;
76336;SDS011;65157;50.082;18.178;2023-08-24T14:42:22;3.90;;;3.60;;
76336;SDS011;65157;50.082;18.178;2023-08-24T14:44:48;5.60;;;3.50;;
76336;SDS011;65157;50.082;18.178;2023-08-24T14:47:15;3.60;;;3.30;;
76336;SDS011;65157;50.082;18.178;2023-08-24T14:49:42;5.70;;;5.20;;
76336;SDS011;65157;50.082;18.178;2023-08-24T14:52:09;4.10;;;3.30;;
76336;SDS011;65157;50.082;18.178;2023-08-24T14:54:35;5.80;;;3.90;;
76336;SDS011;65157;50.082;18.178;2023-08-24T14:57:02;4.20;;;3.50;;
76336;SDS011;65157;50.082;18.178;2023-08-24T14:59:32;5.20;;;3.50;;
76336;SDS011;65157;50.082;18.178;2023-08-24T15:01:58;4.30;;;3.80;;
76336;SDS011;65157;50.082;18.178;2023-08-24T15:04:25;4.50;;;4.10;;
76336;SDS011;65157;50.082;18.178;2023-08-24T15:06:52;3.70;;;2.90;;
76336;SDS011;65157;50.082;18.178;2023-08-24T15:09:19;5.20;;;3.10;;
76336;SDS011;65157;50.082;18.178;2023-08-24T15:11:46;6.60;;;3.70;;
76336;SDS011;65157;50.082;18.178;2023-08-24T15:14:15;3.00;;;2.70;;
76336;SDS011;65157;50.082;18.178;2023-08-24T15:16:42;3.80;;;3.50;;
76336;SDS011;65157;50.082;18.178;2023-08-24T15:19:08;4.10;;;3.40;;
76336;SDS011;65157;50.082;18.178;2023-08-24T15:21:35;3.80;;;3.50;;
76336;SDS011;65157;50.082;18.178;2023-08-24T15:24:01;5.20;;;3.90;;
76336;SDS011;65157;50.082;18.178;2023-08-24T15:26:29;3.80;;;3.50;;
76336;SDS011;65157;50.082;18.178;2023-08-24T15:29:09;5.00;;;3.90;;
76336;SDS011;65157;50.082;18.178;2023-08-24T15:31:40;3.30;;;2.50;;
76336;SDS011;65157;50.082;18.178;2023-08-24T15:34:07;5.00;;;3.50;;
76336;SDS011;65157;50.082;18.178;2023-08-24T15:36:35;3.30;;;3.00;;
76336;SDS011;65157;50.082;18.178;2023-08-24T15:39:02;3.00;;;2.60;;
76336;SDS011;65157;50.082;18.178;2023-08-24T15:41:29;3.40;;;2.70;;
76336;SDS011;65157;50.082;18.178;2023-08-24T15:43:56;6.10;;;4.30;;